^^
Meteo Knjazevac Station Historical Data
Daily Summary for April 30, 2021 Units:  Both    English   Metric
Daily Weekly Monthly Yearly Custom
  High: Low: Average:
Temperature: 71.2 °F /  21.8 °C 66.4 °F /  19.1 °C 68.2 °F /  20.1 °C
Dew Point: 65.8 °F /  18.8 °C 63.4 °F /  17.4 °C 64.3 °F /  17.9 °C
Humidity: 91% 83% 88%
Wind Speed: 3mph /  4.8km/h - 2.4mph /  3.9km/h
Wind Gust: 7mph /  11.3km/h - -
Wind- - West
Pressure: 29.99 in /  1015.5 hPa 29.98 in /  1015.1 hPa -
Precipitation: 0.00 in /  0 mm    
Historical Graphs
 
 
Tabular Data for April 30, 2021
Time Temperature Dew Point Pressure Wind Wind Speed Wind Gust Humidity Rainfall Rate (Hourly) solar Conditions
00:00 71.2 °F /  21.8 °C 65.8 °F /  18.8 °C 29.98in /  1015.1hPa West 2mph /  3.2km/h 4mph /  6.4km/h 83% 0.00in /  0mm 0 W/m2
00:10 70.8 °F /  21.6 °C 65.4 °F /  18.6 °C 29.98in /  1015.1hPa WSW 1mph /  1.6km/h 3mph /  4.8km/h 83% 0.00in /  0mm 0 W/m2
00:20 70.3 °F /  21.3 °C 65.3 °F /  18.5 °C 29.98in /  1015.1hPa West 2mph /  3.2km/h 4mph /  6.4km/h 84% 0.00in /  0mm 0 W/m2
00:30 70 °F /  21.1 °C 64.9 °F /  18.3 °C 29.98in /  1015.1hPa WSW 2mph /  3.2km/h 3mph /  4.8km/h 84% 0.00in /  0mm 0 W/m2
00:40 69.8 °F /  21 °C 65.1 °F /  18.4 °C 29.98in /  1015.1hPa West 2mph /  3.2km/h 4mph /  6.4km/h 85% 0.00in /  0mm 0 W/m2
00:50 69.7 °F /  20.9 °C 65 °F /  18.3 °C 29.98in /  1015.1hPa West 3mph /  4.8km/h 5mph /  8km/h 85% 0.00in /  0mm 0 W/m2
01:00 69.3 °F /  20.7 °C 64.9 °F /  18.3 °C 29.99in /  1015.5hPa West 3mph /  4.8km/h 5mph /  8km/h 86% 0.00in /  0mm 0 W/m2
01:10 68.9 °F /  20.5 °C 64.5 °F /  18.1 °C 29.99in /  1015.5hPa West 3mph /  4.8km/h 5mph /  8km/h 86% 0.00in /  0mm 0 W/m2
01:20 68.5 °F /  20.3 °C 64.2 °F /  17.9 °C 29.99in /  1015.5hPa West 2mph /  3.2km/h 6mph /  9.7km/h 86% 0.00in /  0mm 0 W/m2
01:30 68.4 °F /  20.2 °C 64.7 °F /  18.2 °C 29.98in /  1015.1hPa West 3mph /  4.8km/h 5mph /  8km/h 88% 0.00in /  0mm 0 W/m2
01:40 68 °F /  20 °C 64.3 °F /  17.9 °C 29.99in /  1015.5hPa West 1mph /  1.6km/h 4mph /  6.4km/h 88% 0.00in /  0mm 0 W/m2
01:50 67.8 °F /  19.9 °C 64.1 °F /  17.8 °C 29.99in /  1015.5hPa West 3mph /  4.8km/h 6mph /  9.7km/h 88% 0.00in /  0mm 0 W/m2
02:00 67.4 °F /  19.7 °C 64 °F /  17.8 °C 29.98in /  1015.1hPa WSW 3mph /  4.8km/h 5mph /  8km/h 89% 0.00in /  0mm 0 W/m2
02:10 67.3 °F /  19.6 °C 63.9 °F /  17.7 °C 29.98in /  1015.1hPa West 3mph /  4.8km/h 7mph /  11.3km/h 89% 0.00in /  0mm 0 W/m2
02:20 67.5 °F /  19.7 °C 64.1 °F /  17.8 °C 29.98in /  1015.1hPa West 2mph /  3.2km/h 7mph /  11.3km/h 89% 0.00in /  0mm 0 W/m2
02:30 67.3 °F /  19.6 °C 63.9 °F /  17.7 °C 29.98in /  1015.1hPa West 2mph /  3.2km/h 5mph /  8km/h 89% 0.00in /  0mm 0 W/m2
02:40 66.7 °F /  19.3 °C 63.4 °F /  17.4 °C 29.99in /  1015.5hPa West 3mph /  4.8km/h 5mph /  8km/h 89% 0.00in /  0mm 0 W/m2
02:50 66.4 °F /  19.1 °C 63.4 °F /  17.4 °C 29.99in /  1015.5hPa West 3mph /  4.8km/h 6mph /  9.7km/h 90% 0.00in /  0mm 0 W/m2
03:00 66.4 °F /  19.1 °C 63.4 °F /  17.4 °C 29.99in /  1015.5hPa West 3mph /  4.8km/h 6mph /  9.7km/h 90% 0.00in /  0mm 0 W/m2
03:10 66.4 °F /  19.1 °C 63.7 °F /  17.6 °C 29.99in /  1015.5hPa West 3mph /  4.8km/h 7mph /  11.3km/h 91% 0.00in /  0mm 0 W/m2
03:20 66.6 °F /  19.2 °C 63.5 °F /  17.5 °C 29.99in /  1015.5hPa West 2mph /  3.2km/h 5mph /  8km/h 90% 0.00in /  0mm 0 W/m2
03:30 66.6 °F /  19.2 °C 63.5 °F /  17.5 °C 29.99in /  1015.5hPa West 2mph /  3.2km/h 5mph /  8km/h 90% 0.00in /  0mm 0 W/m2
03:40 66.4 °F /  19.1 °C 63.4 °F /  17.4 °C 29.99in /  1015.5hPa West 2mph /  3.2km/h 4mph /  6.4km/h 90% 0.00in /  0mm 0 W/m2
Knjazevac, Serbia
Compliments of Weather Underground - 2 mb